createdAt,value
2023-05-10T00:00:02.455Z,1009.72
2023-05-10T00:00:18.837Z,1009.72
2023-05-10T00:00:34.701Z,1009.65
2023-05-10T00:00:50.868Z,1009.76
2023-05-10T00:01:06.988Z,1009.7
2023-05-10T00:01:23.149Z,1009.7
2023-05-10T00:01:39.320Z,1009.63
2023-05-10T00:01:55.460Z,1009.63
2023-05-10T00:02:11.639Z,1009.65
2023-05-10T00:02:27.796Z,1009.67
2023-05-10T00:02:43.910Z,1009.65
2023-05-10T00:03:00.097Z,1009.63
2023-05-10T00:03:16.213Z,1009.71
2023-05-10T00:03:32.284Z,1009.6
2023-05-10T00:03:48.626Z,1009.66
2023-05-10T00:04:04.682Z,1009.66
2023-05-10T00:04:20.840Z,1009.61
2023-05-10T00:04:36.815Z,1009.58
2023-05-10T00:04:53.052Z,1009.65
2023-05-10T00:05:09.223Z,1009.64
2023-05-10T00:05:25.350Z,1009.61
2023-05-10T00:05:41.463Z,1009.67
2023-05-10T00:05:57.618Z,1009.66
2023-05-10T00:06:13.768Z,1009.62
2023-05-10T00:06:29.914Z,1009.63
2023-05-10T00:06:46.090Z,1009.65
2023-05-10T00:07:13.498Z,1009.69
2023-05-10T00:07:29.638Z,1009.7
2023-05-10T00:07:45.932Z,1009.67
2023-05-10T00:08:01.923Z,1009.64
2023-05-10T00:08:18.061Z,1009.7
2023-05-10T00:08:34.205Z,1009.68
2023-05-10T00:08:50.354Z,1009.62
2023-05-10T00:09:06.516Z,1009.72
2023-05-10T00:09:22.648Z,1009.68
2023-05-10T00:09:38.791Z,1009.65
2023-05-10T00:09:54.925Z,1009.62
2023-05-10T00:10:11.123Z,1009.69
2023-05-10T00:10:27.261Z,1009.71
2023-05-10T00:10:43.382Z,1009.6
2023-05-10T00:10:59.530Z,1009.69
2023-05-10T00:11:15.707Z,1009.67
2023-05-10T00:11:31.844Z,1009.62
2023-05-10T00:11:47.957Z,1009.63
2023-05-10T00:12:04.105Z,1009.58
2023-05-10T00:12:20.250Z,1009.64
2023-05-10T00:12:36.383Z,1009.66
2023-05-10T00:12:52.654Z,1009.77
2023-05-10T00:13:08.756Z,1009.6
2023-05-10T00:13:24.860Z,1009.62
2023-05-10T00:13:40.979Z,1009.63
2023-05-10T00:13:57.132Z,1009.66
2023-05-10T00:14:13.295Z,1009.6
2023-05-10T00:14:29.402Z,1009.58
2023-05-10T00:14:45.564Z,1009.61
2023-05-10T00:15:01.717Z,1009.59
2023-05-10T00:15:17.876Z,1009.61
2023-05-10T00:15:34.011Z,1009.61
2023-05-10T00:15:50.132Z,1009.6
2023-05-10T00:16:06.309Z,1009.58
2023-05-10T00:16:22.472Z,1009.63
2023-05-10T00:16:38.647Z,1009.59
2023-05-10T00:16:54.831Z,1009.58
2023-05-10T00:17:10.891Z,1009.56
2023-05-10T00:17:27.090Z,1009.62
2023-05-10T00:17:43.218Z,1009.61
2023-05-10T00:17:59.324Z,1009.67
2023-05-10T00:18:15.445Z,1009.57
2023-05-10T00:18:31.584Z,1009.63
2023-05-10T00:18:47.736Z,1009.59
2023-05-10T00:19:03.909Z,1009.55
2023-05-10T00:19:20.046Z,1009.56
2023-05-10T00:19:36.223Z,1009.53
2023-05-10T00:19:52.331Z,1009.57
2023-05-10T00:20:08.459Z,1009.57
2023-05-10T00:20:24.630Z,1009.6
2023-05-10T00:20:40.762Z,1009.53
2023-05-10T00:20:56.925Z,1009.56
2023-05-10T00:21:13.087Z,1009.56
2023-05-10T00:21:29.184Z,1009.52
2023-05-10T00:21:45.352Z,1009.57
2023-05-10T00:22:01.502Z,1009.51
2023-05-10T00:22:17.658Z,1009.57
2023-05-10T00:22:33.764Z,1009.49
2023-05-10T00:22:49.922Z,1009.52
2023-05-10T00:23:06.058Z,1009.45
2023-05-10T00:23:22.133Z,1009.53
2023-05-10T00:23:38.428Z,1009.49
2023-05-10T00:23:54.523Z,1009.48
2023-05-10T00:24:10.661Z,1009.47
2023-05-10T00:24:26.803Z,1009.48
2023-05-10T00:24:42.947Z,1009.46
2023-05-10T00:24:59.081Z,1009.51
2023-05-10T00:25:15.247Z,1009.47
2023-05-10T00:25:31.379Z,1009.42
2023-05-10T00:25:47.533Z,1009.47
2023-05-10T00:26:03.720Z,1009.41
2023-05-10T00:26:19.833Z,1009.46
2023-05-10T00:26:35.956Z,1009.45
2023-05-10T00:26:52.105Z,1009.4
2023-05-10T00:27:08.254Z,1009.47
2023-05-10T00:27:24.398Z,1009.41
2023-05-10T00:27:40.542Z,1009.43
2023-05-10T00:27:56.679Z,1009.37
2023-05-10T00:28:12.830Z,1009.47
2023-05-10T00:28:28.987Z,1009.41
2023-05-10T00:28:45.139Z,1009.44
2023-05-10T00:29:01.295Z,1009.42
2023-05-10T00:29:17.448Z,1009.45
2023-05-10T00:29:33.564Z,1009.47
2023-05-10T00:29:49.731Z,1009.45
2023-05-10T00:30:05.850Z,1009.47
2023-05-10T00:30:21.999Z,1009.51
2023-05-10T00:30:38.204Z,1009.42
2023-05-10T00:30:54.289Z,1009.51
2023-05-10T00:31:10.442Z,1009.44
2023-05-10T00:31:26.603Z,1009.43
2023-05-10T00:31:42.763Z,1009.51
2023-05-10T00:31:58.949Z,1009.45
2023-05-10T00:32:15.068Z,1009.45
2023-05-10T00:32:31.178Z,1009.44
2023-05-10T00:32:47.365Z,1009.39
2023-05-10T00:33:03.572Z,1009.44
2023-05-10T00:33:19.645Z,1009.41
2023-05-10T00:33:35.748Z,1009.46
2023-05-10T00:33:51.899Z,1009.48
2023-05-10T00:34:08.038Z,1009.45
2023-05-10T00:34:24.197Z,1009.48
2023-05-10T00:34:40.327Z,1009.44
2023-05-10T00:34:56.459Z,1009.5
2023-05-10T00:35:12.617Z,1009.4
2023-05-10T00:35:28.752Z,1009.4
2023-05-10T00:35:44.899Z,1009.44
2023-05-10T00:36:01.073Z,1009.44
2023-05-10T00:36:17.202Z,1009.43
2023-05-10T00:36:33.357Z,1009.44
2023-05-10T00:36:49.481Z,1009.41
2023-05-10T00:37:05.632Z,1009.38
2023-05-10T00:37:21.812Z,1009.33
2023-05-10T00:37:37.935Z,1009.4
2023-05-10T00:37:54.082Z,1009.4
2023-05-10T00:38:10.240Z,1009.4
2023-05-10T00:38:26.387Z,1009.44
2023-05-10T00:38:42.510Z,1009.4
2023-05-10T00:38:58.648Z,1009.47
2023-05-10T00:39:14.799Z,1009.39
2023-05-10T00:39:30.977Z,1009.36
2023-05-10T00:39:47.102Z,1009.33
2023-05-10T00:40:03.270Z,1009.51
2023-05-10T00:40:19.554Z,1009.43
2023-05-10T00:40:35.524Z,1009.4
2023-05-10T00:40:51.665Z,1009.37
2023-05-10T00:41:07.828Z,1009.41
2023-05-10T00:41:23.982Z,1009.35
2023-05-10T00:41:40.105Z,1009.35
2023-05-10T00:41:56.251Z,1009.34
2023-05-10T00:42:12.419Z,1009.36
2023-05-10T00:42:28.555Z,1009.37
2023-05-10T00:42:44.685Z,1009.32
2023-05-10T00:43:00.845Z,1009.36
2023-05-10T00:43:16.989Z,1009.33
2023-05-10T00:43:33.123Z,1009.34
2023-05-10T00:43:49.300Z,1009.36
2023-05-10T00:44:05.439Z,1009.43
2023-05-10T00:44:21.591Z,1009.31
2023-05-10T00:44:37.702Z,1009.36
2023-05-10T00:44:53.898Z,1009.35
2023-05-10T00:45:10.048Z,1009.4
2023-05-10T00:45:26.186Z,1009.37
2023-05-10T00:45:42.369Z,1009.31
2023-05-10T00:45:58.488Z,1009.35
2023-05-10T00:46:14.654Z,1009.33
2023-05-10T00:46:30.912Z,1009.39
2023-05-10T00:46:46.895Z,1009.38
2023-05-10T00:47:03.052Z,1009.3
2023-05-10T00:47:19.183Z,1009.35
2023-05-10T00:47:35.354Z,1009.35
2023-05-10T00:47:51.473Z,1009.33
2023-05-10T00:48:07.651Z,1009.34
2023-05-10T00:48:23.743Z,1009.32
2023-05-10T00:48:39.887Z,1009.35
2023-05-10T00:48:56.053Z,1009.3
2023-05-10T00:49:12.201Z,1009.39
2023-05-10T00:49:28.372Z,1009.31
2023-05-10T00:49:44.479Z,1009.35
2023-05-10T00:50:00.656Z,1009.3
2023-05-10T00:50:17.101Z,1009.32
2023-05-10T00:50:32.943Z,1009.31
2023-05-10T00:50:49.078Z,1009.32
2023-05-10T00:51:05.239Z,1009.38
2023-05-10T00:51:21.354Z,1009.39
2023-05-10T00:51:37.506Z,1009.32
2023-05-10T00:51:53.660Z,1009.29
2023-05-10T00:52:09.788Z,1009.29
2023-05-10T00:52:26.101Z,1009.26
2023-05-10T00:52:42.077Z,1009.26
2023-05-10T00:52:58.238Z,1009.33
2023-05-10T00:53:14.368Z,1009.28
2023-05-10T00:53:30.574Z,1009.29
2023-05-10T00:53:46.664Z,1009.2
2023-05-10T00:54:02.817Z,1009.29
2023-05-10T00:54:18.987Z,1009.28
2023-05-10T00:54:35.106Z,1009.34
2023-05-10T00:54:51.238Z,1009.32
2023-05-10T00:55:07.398Z,1009.31
2023-05-10T00:55:23.534Z,1009.32
2023-05-10T00:55:39.670Z,1009.28
2023-05-10T00:55:55.820Z,1009.4
2023-05-10T00:56:11.970Z,1009.26
2023-05-10T00:56:28.130Z,1009.26
2023-05-10T00:56:44.250Z,1009.31
2023-05-10T00:57:00.432Z,1009.26
2023-05-10T00:57:16.577Z,1009.33
2023-05-10T00:57:32.705Z,1009.33
2023-05-10T00:57:48.854Z,1009.29
2023-05-10T00:58:04.974Z,1009.29
2023-05-10T00:58:21.151Z,1009.26
2023-05-10T00:58:37.230Z,1009.25
2023-05-10T00:58:53.431Z,1009.26
2023-05-10T00:59:09.586Z,1009.3
2023-05-10T00:59:25.732Z,1009.32
2023-05-10T00:59:41.875Z,1009.35
2023-05-10T00:59:58.018Z,1009.29
2023-05-10T01:00:14.361Z,1009.31
2023-05-10T01:00:30.314Z,1009.32
2023-05-10T01:00:46.436Z,1009.31
2023-05-10T01:01:13.960Z,1009.29
2023-05-10T01:01:30.083Z,1009.32
2023-05-10T01:01:46.247Z,1009.3
2023-05-10T01:02:02.345Z,1009.26
2023-05-10T01:02:18.478Z,1009.29
2023-05-10T01:02:34.742Z,1009.24
2023-05-10T01:02:51.077Z,1009.28
2023-05-10T01:03:07.022Z,1009.23
2023-05-10T01:03:23.199Z,1009.26
2023-05-10T01:03:39.206Z,1009.29
2023-05-10T01:03:55.356Z,1009.25
2023-05-10T01:04:11.465Z,1009.3
2023-05-10T01:04:27.635Z,1009.25
2023-05-10T01:04:43.811Z,1009.23
2023-05-10T01:04:59.939Z,1009.24
2023-05-10T01:05:16.148Z,1009.22
2023-05-10T01:05:32.216Z,1009.21
2023-05-10T01:05:48.356Z,1009.14
2023-05-10T01:06:04.513Z,1009.21
2023-05-10T01:06:20.638Z,1009.3
2023-05-10T01:06:36.792Z,1009.28
2023-05-10T01:06:52.927Z,1009.2
2023-05-10T01:07:09.073Z,1009.23
2023-05-10T01:07:25.222Z,1009.23
2023-05-10T01:07:41.368Z,1009.27
2023-05-10T01:07:57.536Z,1009.25
2023-05-10T01:08:13.661Z,1009.25
2023-05-10T01:08:29.810Z,1009.26
2023-05-10T01:08:45.952Z,1009.17
2023-05-10T01:09:02.133Z,1009.24
2023-05-10T01:09:18.273Z,1009.24
2023-05-10T01:09:34.394Z,1009.26
2023-05-10T01:09:50.551Z,1009.24
2023-05-10T01:10:06.686Z,1009.28
2023-05-10T01:10:22.852Z,1009.21
2023-05-10T01:10:38.975Z,1009.25
2023-05-10T01:10:55.171Z,1009.29
2023-05-10T01:11:11.269Z,1009.24
2023-05-10T01:11:27.407Z,1009.22
2023-05-10T01:11:43.550Z,1009.24
2023-05-10T01:11:59.717Z,1009.18
2023-05-10T01:12:15.883Z,1009.24
2023-05-10T01:12:32.055Z,1009.26
2023-05-10T01:12:48.261Z,1009.18
2023-05-10T01:13:04.340Z,1009.2
2023-05-10T01:13:20.479Z,1009.24
2023-05-10T01:13:36.597Z,1009.3
2023-05-10T01:13:52.736Z,1009.26
2023-05-10T01:14:08.886Z,1009.25
2023-05-10T01:14:25.022Z,1009.23
2023-05-10T01:14:41.147Z,1009.27
2023-05-10T01:14:57.324Z,1009.31
2023-05-10T01:15:13.432Z,1009.17
2023-05-10T01:15:29.598Z,1009.27
2023-05-10T01:15:45.748Z,1009.29
2023-05-10T01:16:01.903Z,1009.25
2023-05-10T01:16:18.112Z,1009.19
2023-05-10T01:16:34.293Z,1009.22
2023-05-10T01:16:50.320Z,1009.18
2023-05-10T01:17:06.470Z,1009.24
2023-05-10T01:17:22.594Z,1009.24
2023-05-10T01:17:38.800Z,1009.19
2023-05-10T01:17:54.987Z,1009.22
2023-05-10T01:18:11.059Z,1009.23
2023-05-10T01:18:27.209Z,1009.23
2023-05-10T01:18:43.348Z,1009.23
2023-05-10T01:18:59.492Z,1009.23
2023-05-10T01:19:15.633Z,1009.16
2023-05-10T01:19:31.766Z,1009.29
2023-05-10T01:19:47.912Z,1009.23
2023-05-10T01:20:04.063Z,1009.21
2023-05-10T01:20:20.344Z,1009.25
2023-05-10T01:20:36.380Z,1009.21
2023-05-10T01:20:52.510Z,1009.19
2023-05-10T01:21:08.656Z,1009.23
2023-05-10T01:21:24.834Z,1009.22
2023-05-10T01:21:40.952Z,1009.17
2023-05-10T01:21:57.088Z,1009.16
2023-05-10T01:22:13.228Z,1009.19
2023-05-10T01:22:29.375Z,1009.19
2023-05-10T01:22:45.518Z,1009.18
2023-05-10T01:23:01.654Z,1009.23
2023-05-10T01:23:17.826Z,1009.2
2023-05-10T01:23:33.993Z,1009.19
2023-05-10T01:23:50.104Z,1009.17
2023-05-10T01:24:06.253Z,1009.22
2023-05-10T01:24:22.392Z,1009.21
2023-05-10T01:24:38.567Z,1009.15
2023-05-10T01:24:54.731Z,1009.23
2023-05-10T01:25:10.828Z,1009.21
2023-05-10T01:25:27.028Z,1009.22
2023-05-10T01:25:43.155Z,1009.23
2023-05-10T01:25:59.285Z,1009.18
2023-05-10T01:26:15.416Z,1009.15
2023-05-10T01:26:31.598Z,1009.2
2023-05-10T01:26:47.706Z,1009.11
2023-05-10T01:27:03.891Z,1009.09
2023-05-10T01:27:20.025Z,1009.21
2023-05-10T01:27:36.140Z,1009.18
2023-05-10T01:27:52.307Z,1009.15
2023-05-10T01:28:08.453Z,1009.13
2023-05-10T01:28:24.579Z,1009.16
2023-05-10T01:28:40.743Z,1009.21
2023-05-10T01:28:56.866Z,1009.17
2023-05-10T01:29:13.028Z,1009.17
2023-05-10T01:29:29.099Z,1009.16
2023-05-10T01:29:45.345Z,1009.15
2023-05-10T01:30:14.697Z,1009.23
2023-05-10T01:30:17.594Z,1009.18
2023-05-10T01:30:33.766Z,1009.13
2023-05-10T01:30:49.908Z,1009.13
2023-05-10T01:31:06.071Z,1009.18
2023-05-10T01:31:22.269Z,1009.2
2023-05-10T01:31:38.346Z,1009.14
2023-05-10T01:31:54.460Z,1009.1
2023-05-10T01:32:10.639Z,1009.11
2023-05-10T01:32:26.824Z,1009.12
2023-05-10T01:32:42.929Z,1009.14
2023-05-10T01:32:59.097Z,1009.15
2023-05-10T01:33:15.200Z,1009.18
2023-05-10T01:33:31.331Z,1009.16
2023-05-10T01:33:47.493Z,1009.14
2023-05-10T01:34:03.676Z,1009.15
2023-05-10T01:34:19.803Z,1009.14
2023-05-10T01:34:35.930Z,1009.11
2023-05-10T01:34:52.114Z,1009.21
2023-05-10T01:35:08.209Z,1009.13
2023-05-10T01:35:24.392Z,1009.14
2023-05-10T01:35:40.493Z,1009.19
2023-05-10T01:35:56.668Z,1009.16
2023-05-10T01:36:12.814Z,1009.13
2023-05-10T01:36:28.927Z,1009.11
2023-05-10T01:36:45.073Z,1009.19
2023-05-10T01:37:01.225Z,1009.21
2023-05-10T01:37:17.372Z,1009.14
2023-05-10T01:37:33.515Z,1009.16
2023-05-10T01:37:49.674Z,1009.13
2023-05-10T01:38:05.831Z,1009.11
2023-05-10T01:38:21.958Z,1009.15
2023-05-10T01:38:38.131Z,1009.07
2023-05-10T01:38:54.284Z,1009.11
2023-05-10T01:39:10.432Z,1009.12
2023-05-10T01:39:26.532Z,1009.11
2023-05-10T01:39:42.698Z,1009.12
2023-05-10T01:39:58.821Z,1009.11
2023-05-10T01:40:15.287Z,1009.14
2023-05-10T01:40:31.109Z,1009.12
2023-05-10T01:40:47.258Z,1009.14
2023-05-10T01:41:03.494Z,1009.19
2023-05-10T01:41:19.572Z,1009.16
2023-05-10T01:41:35.624Z,1009.23
2023-05-10T01:41:51.842Z,1009.12
2023-05-10T01:42:08.012Z,1009.14
2023-05-10T01:42:24.138Z,1009.17
2023-05-10T01:42:40.290Z,1009.17
2023-05-10T01:42:56.445Z,1009.12
2023-05-10T01:43:12.602Z,1009.14
2023-05-10T01:43:28.752Z,1009.14
2023-05-10T01:43:44.796Z,1009.13
2023-05-10T01:44:01.039Z,1009.09
2023-05-10T01:44:17.142Z,1009.11
2023-05-10T01:44:33.308Z,1009.07
2023-05-10T01:44:49.452Z,1009.06
2023-05-10T01:45:05.608Z,1009.1
2023-05-10T01:45:21.758Z,1009.13
2023-05-10T01:45:37.915Z,1009.14
2023-05-10T01:45:54.023Z,1009.09
2023-05-10T01:46:10.238Z,1009.06
2023-05-10T01:46:26.356Z,1009.09
2023-05-10T01:46:42.521Z,1009.08
2023-05-10T01:46:58.643Z,1009.08
2023-05-10T01:47:14.759Z,1009.06
2023-05-10T01:47:30.984Z,1009.09
2023-05-10T01:47:47.086Z,1009.09
2023-05-10T01:48:03.253Z,1009.06
2023-05-10T01:48:19.334Z,1009.04
2023-05-10T01:48:35.529Z,1009.09
2023-05-10T01:48:51.647Z,1009.08
2023-05-10T01:49:07.812Z,1009.13
2023-05-10T01:49:23.918Z,1009.06
2023-05-10T01:49:40.082Z,1009.08
2023-05-10T01:49:56.213Z,1009.08
2023-05-10T01:50:12.387Z,1009.08
2023-05-10T01:50:28.517Z,1009.04
2023-05-10T01:50:44.663Z,1009.04
2023-05-10T01:51:00.787Z,1009.06
2023-05-10T01:51:16.935Z,1009.08
2023-05-10T01:51:33.068Z,1009.04
2023-05-10T01:51:49.228Z,1009.06
2023-05-10T01:52:05.391Z,1009.03
2023-05-10T01:52:21.522Z,1009.01
2023-05-10T01:52:37.700Z,1009.07
2023-05-10T01:52:53.829Z,1009.01
2023-05-10T01:53:10.011Z,1009.05
2023-05-10T01:53:26.115Z,1009.04
2023-05-10T01:53:42.265Z,1009.04
2023-05-10T01:53:58.403Z,1009.05
2023-05-10T01:54:14.529Z,1009.07
2023-05-10T01:54:30.700Z,1009.04
2023-05-10T01:54:46.763Z,1009.04
2023-05-10T01:55:14.269Z,1009.09
2023-05-10T01:55:30.445Z,1009.11
2023-05-10T01:55:46.573Z,1009.09
2023-05-10T01:56:02.690Z,1009.04
2023-05-10T01:56:18.855Z,1009.03
2023-05-10T01:56:35.028Z,1009.08
2023-05-10T01:56:51.134Z,1009.04
2023-05-10T01:57:07.271Z,1009.06
2023-05-10T01:57:23.443Z,1009.01
2023-05-10T01:57:39.600Z,1009.05
2023-05-10T01:57:55.722Z,1009.03
2023-05-10T01:58:11.860Z,1009.08
2023-05-10T01:58:27.989Z,1009.04
2023-05-10T01:58:44.160Z,1009.04
2023-05-10T01:59:00.312Z,1009.08
2023-05-10T01:59:16.440Z,1009.03
2023-05-10T01:59:32.610Z,1009.03
2023-05-10T01:59:48.729Z,1009.05
2023-05-10T02:00:04.906Z,1009.03
2023-05-10T02:00:21.045Z,1009.02
2023-05-10T02:00:37.246Z,1009.06
2023-05-10T02:00:53.503Z,1009.1
2023-05-10T02:01:09.477Z,1009.03
2023-05-10T02:01:25.646Z,1008.99
2023-05-10T02:01:41.775Z,1009.02
2023-05-10T02:01:57.913Z,1009.03
2023-05-10T02:02:14.052Z,1009.03
2023-05-10T02:02:30.316Z,1009.06
2023-05-10T02:02:46.430Z,1009.06
2023-05-10T02:03:02.550Z,1009.13
2023-05-10T02:03:18.700Z,1009.09
2023-05-10T02:03:34.847Z,1009.06
2023-05-10T02:03:51.036Z,1009.08
2023-05-10T02:04:07.103Z,1009.04
2023-05-10T02:04:23.218Z,1009
2023-05-10T02:04:39.396Z,1008.97
2023-05-10T02:04:55.518Z,1009.05
2023-05-10T02:05:11.638Z,1009.06
2023-05-10T02:05:27.798Z,1009.02
2023-05-10T02:05:43.926Z,1009.06
2023-05-10T02:06:00.129Z,1009.06
2023-05-10T02:06:16.230Z,1009.06
2023-05-10T02:06:32.386Z,1009.04
2023-05-10T02:06:48.548Z,1009.11
2023-05-10T02:07:04.669Z,1009.07
2023-05-10T02:07:20.900Z,1009.09
2023-05-10T02:07:36.950Z,1009.15
2023-05-10T02:07:53.089Z,1009.09
2023-05-10T02:08:09.294Z,1009.06
2023-05-10T02:08:25.403Z,1009.09
2023-05-10T02:08:41.544Z,1009.07
2023-05-10T02:08:57.706Z,1009.07
2023-05-10T02:09:13.838Z,1009.05
2023-05-10T02:09:30.002Z,1009.07
2023-05-10T02:09:46.147Z,1009
2023-05-10T02:10:02.305Z,1009.13
2023-05-10T02:10:18.807Z,1009.05
2023-05-10T02:10:34.562Z,1009.08
2023-05-10T02:10:50.698Z,1009.03
2023-05-10T02:11:06.850Z,1008.98
2023-05-10T02:11:22.990Z,1009.11
2023-05-10T02:11:39.145Z,1009.07
2023-05-10T02:11:55.304Z,1009
2023-05-10T02:12:11.426Z,1009.03
2023-05-10T02:12:27.497Z,1008.99
2023-05-10T02:12:43.777Z,1008.98
2023-05-10T02:12:59.928Z,1008.99
2023-05-10T02:13:16.157Z,1009.04
2023-05-10T02:13:32.173Z,1009.01
2023-05-10T02:13:48.369Z,1009.01
2023-05-10T02:14:04.446Z,1008.98
2023-05-10T02:14:20.614Z,1009.02
2023-05-10T02:14:36.681Z,1009.04
2023-05-10T02:14:52.902Z,1009.05
2023-05-10T02:15:09.022Z,1009.05
2023-05-10T02:15:25.246Z,1009.01
2023-05-10T02:15:41.365Z,1009.07
2023-05-10T02:15:57.509Z,1009.09
2023-05-10T02:16:13.683Z,1009
2023-05-10T02:16:29.818Z,1009.1
2023-05-10T02:16:45.952Z,1009.07
2023-05-10T02:17:02.194Z,1009.05
2023-05-10T02:17:18.235Z,1009.05
2023-05-10T02:17:34.409Z,1009.07
2023-05-10T02:17:50.556Z,1009.07
2023-05-10T02:18:06.682Z,1009.07
2023-05-10T02:18:22.817Z,1008.99
2023-05-10T02:18:38.950Z,1009.06
2023-05-10T02:18:55.075Z,1009.03
2023-05-10T02:19:11.227Z,1008.98
2023-05-10T02:19:27.375Z,1009.04
2023-05-10T02:19:43.516Z,1009.04
2023-05-10T02:19:59.685Z,1009.02
2023-05-10T02:20:16.053Z,1009.01
2023-05-10T02:20:31.953Z,1008.99
2023-05-10T02:20:48.142Z,1008.97
2023-05-10T02:21:04.268Z,1008.99
2023-05-10T02:21:20.393Z,1009.03
2023-05-10T02:21:36.539Z,1009.03
2023-05-10T02:21:52.668Z,1009
2023-05-10T02:22:08.816Z,1009
2023-05-10T02:22:25.018Z,1008.96
2023-05-10T02:22:41.122Z,1009.02
2023-05-10T02:22:57.272Z,1008.99
2023-05-10T02:23:13.443Z,1008.95
2023-05-10T02:23:29.542Z,1009.06
2023-05-10T02:23:45.728Z,1008.99
2023-05-10T02:24:01.839Z,1008.98
2023-05-10T02:24:17.983Z,1008.99
2023-05-10T02:24:34.228Z,1009.04
2023-05-10T02:24:50.274Z,1008.94
2023-05-10T02:25:06.444Z,1009
2023-05-10T02:25:22.570Z,1008.96
2023-05-10T02:25:38.728Z,1008.97
2023-05-10T02:25:54.847Z,1008.94
2023-05-10T02:26:11.043Z,1009
2023-05-10T02:26:27.168Z,1008.98
2023-05-10T02:26:43.289Z,1008.92
2023-05-10T02:26:59.432Z,1009.01
2023-05-10T02:27:15.581Z,1008.98
2023-05-10T02:27:31.741Z,1008.96
2023-05-10T02:27:47.879Z,1009
2023-05-10T02:28:04.013Z,1009.01
2023-05-10T02:28:20.226Z,1008.96
2023-05-10T02:28:36.309Z,1008.92
2023-05-10T02:28:52.469Z,1008.96
2023-05-10T02:29:08.601Z,1008.95
2023-05-10T02:29:24.750Z,1008.95
2023-05-10T02:29:40.930Z,1008.99
2023-05-10T02:29:57.070Z,1008.97
2023-05-10T02:30:13.284Z,1009.01
2023-05-10T02:30:29.368Z,1009.05
2023-05-10T02:30:45.487Z,1009
2023-05-10T02:31:01.652Z,1008.94
2023-05-10T02:31:17.763Z,1008.93
2023-05-10T02:31:34.027Z,1008.93
2023-05-10T02:31:50.121Z,1008.89
2023-05-10T02:32:06.257Z,1008.89
2023-05-10T02:32:22.390Z,1008.93
2023-05-10T02:32:38.535Z,1008.92
2023-05-10T02:32:54.744Z,1008.95
2023-05-10T02:33:10.794Z,1008.94
2023-05-10T02:33:26.960Z,1008.93
2023-05-10T02:33:43.100Z,1008.96
2023-05-10T02:33:59.206Z,1008.97
2023-05-10T02:34:15.364Z,1008.94
2023-05-10T02:34:31.435Z,1008.95
2023-05-10T02:34:47.666Z,1008.97
2023-05-10T02:35:03.824Z,1008.92
2023-05-10T02:35:19.945Z,1008.91
2023-05-10T02:35:36.132Z,1008.97
2023-05-10T02:35:52.254Z,1008.93
2023-05-10T02:36:08.368Z,1008.9
2023-05-10T02:36:24.524Z,1008.94
2023-05-10T02:36:40.704Z,1008.95
2023-05-10T02:36:56.843Z,1009.05
2023-05-10T02:37:12.988Z,1008.97
2023-05-10T02:37:29.101Z,1008.98
2023-05-10T02:37:45.258Z,1008.94
2023-05-10T02:38:01.422Z,1008.94
2023-05-10T02:38:17.571Z,1008.98
2023-05-10T02:38:33.700Z,1008.93
2023-05-10T02:38:49.857Z,1008.96
2023-05-10T02:39:06.032Z,1008.94
2023-05-10T02:39:22.151Z,1008.93
2023-05-10T02:39:38.303Z,1008.99
2023-05-10T02:39:54.405Z,1008.99
2023-05-10T02:40:10.608Z,1008.95
2023-05-10T02:40:28.644Z,1008.9
2023-05-10T02:40:42.867Z,1008.98
2023-05-10T02:40:59.000Z,1008.94
2023-05-10T02:41:15.199Z,1008.98
2023-05-10T02:41:31.309Z,1008.95
2023-05-10T02:41:47.442Z,1008.92
2023-05-10T02:42:03.602Z,1008.98
2023-05-10T02:42:19.762Z,1008.92
2023-05-10T02:42:35.883Z,1008.98
2023-05-10T02:42:52.033Z,1008.92
2023-05-10T02:43:08.213Z,1008.95
2023-05-10T02:43:24.310Z,1008.91
2023-05-10T02:43:40.470Z,1008.97
2023-05-10T02:43:56.609Z,1008.96
2023-05-10T02:44:12.748Z,1008.92
2023-05-10T02:44:28.812Z,1008.96
2023-05-10T02:44:45.077Z,1008.96
2023-05-10T02:45:01.230Z,1008.97
2023-05-10T02:45:17.337Z,1008.95
2023-05-10T02:45:33.399Z,1008.9
2023-05-10T02:45:49.645Z,1008.97
2023-05-10T02:46:05.784Z,1008.92
2023-05-10T02:46:21.955Z,1008.98
2023-05-10T02:46:38.252Z,1008.94
2023-05-10T02:46:54.214Z,1008.94
2023-05-10T02:47:10.392Z,1008.85
2023-05-10T02:47:26.488Z,1008.95
2023-05-10T02:47:42.721Z,1008.87
2023-05-10T02:47:58.860Z,1008.93
2023-05-10T02:48:15.069Z,1009.01
2023-05-10T02:48:31.101Z,1008.87
2023-05-10T02:48:47.248Z,1008.92
2023-05-10T02:49:14.667Z,1008.95
2023-05-10T02:49:30.819Z,1008.95
2023-05-10T02:49:46.937Z,1008.89
2023-05-10T02:50:03.126Z,1008.88
2023-05-10T02:50:19.352Z,1008.95
2023-05-10T02:50:35.375Z,1008.86
2023-05-10T02:50:51.539Z,1009.04
2023-05-10T02:51:07.736Z,1008.93
2023-05-10T02:51:23.871Z,1008.92
2023-05-10T02:51:39.964Z,1008.91
2023-05-10T02:51:56.118Z,1008.94
2023-05-10T02:52:12.185Z,1008.96
2023-05-10T02:52:28.490Z,1008.96
2023-05-10T02:52:44.554Z,1009.01
2023-05-10T02:53:00.694Z,1009.01
2023-05-10T02:53:16.834Z,1008.94
2023-05-10T02:53:33.005Z,1008.9
2023-05-10T02:53:49.171Z,1008.96
2023-05-10T02:54:05.280Z,1008.91
2023-05-10T02:54:21.413Z,1008.92
2023-05-10T02:54:37.569Z,1008.96
2023-05-10T02:54:53.717Z,1008.95
2023-05-10T02:55:09.884Z,1008.95
2023-05-10T02:55:26.014Z,1008.93
2023-05-10T02:55:42.170Z,1008.93
2023-05-10T02:55:58.282Z,1008.85
2023-05-10T02:56:14.453Z,1008.95
2023-05-10T02:56:30.610Z,1008.91
2023-05-10T02:56:46.726Z,1008.94
2023-05-10T02:57:02.902Z,1008.9
2023-05-10T02:57:19.059Z,1008.99
2023-05-10T02:57:35.210Z,1008.93
2023-05-10T02:57:51.326Z,1008.86
2023-05-10T02:58:07.478Z,1008.94
2023-05-10T02:58:23.629Z,1008.94
2023-05-10T02:58:39.770Z,1008.98
2023-05-10T02:58:55.958Z,1008.96
2023-05-10T02:59:12.057Z,1008.93
2023-05-10T02:59:28.193Z,1008.92
2023-05-10T02:59:44.349Z,1008.84
2023-05-10T03:00:00.478Z,1008.94
2023-05-10T03:00:16.927Z,1008.9
2023-05-10T03:00:32.776Z,1008.92
2023-05-10T03:00:48.919Z,1008.95
2023-05-10T03:01:05.112Z,1008.93
2023-05-10T03:01:21.252Z,1008.83
2023-05-10T03:01:37.407Z,1008.92
2023-05-10T03:01:53.553Z,1008.95
2023-05-10T03:02:09.637Z,1008.92
2023-05-10T03:02:25.870Z,1008.92
2023-05-10T03:02:41.951Z,1008.85
2023-05-10T03:02:58.130Z,1008.85
2023-05-10T03:03:14.241Z,1008.87
2023-05-10T03:03:30.360Z,1008.88
2023-05-10T03:03:46.529Z,1008.93
2023-05-10T03:04:02.677Z,1008.83
2023-05-10T03:04:18.749Z,1008.89
2023-05-10T03:04:35.024Z,1008.91
2023-05-10T03:04:51.232Z,1008.86
2023-05-10T03:05:07.247Z,1008.86
2023-05-10T03:05:23.396Z,1008.85
2023-05-10T03:05:39.533Z,1008.92
2023-05-10T03:05:55.711Z,1008.89
2023-05-10T03:06:11.826Z,1008.87
2023-05-10T03:06:27.893Z,1008.81
2023-05-10T03:06:44.113Z,1008.83
2023-05-10T03:07:00.337Z,1008.92
2023-05-10T03:07:16.430Z,1008.85
2023-05-10T03:07:32.572Z,1008.86
2023-05-10T03:07:48.709Z,1008.87
2023-05-10T03:08:04.883Z,1008.93
2023-05-10T03:08:21.051Z,1008.87
2023-05-10T03:08:37.129Z,1008.91
2023-05-10T03:08:53.293Z,1008.85
2023-05-10T03:09:09.454Z,1008.87
2023-05-10T03:09:25.574Z,1008.94
2023-05-10T03:09:41.752Z,1008.93
2023-05-10T03:09:57.881Z,1008.86
2023-05-10T03:10:14.121Z,1008.84
2023-05-10T03:10:30.156Z,1008.87
2023-05-10T03:10:46.325Z,1008.93
2023-05-10T03:11:02.468Z,1008.93
2023-05-10T03:11:18.634Z,1008.85
2023-05-10T03:11:34.751Z,1008.89
2023-05-10T03:11:50.900Z,1008.9
2023-05-10T03:12:07.022Z,1008.9
2023-05-10T03:12:23.211Z,1008.86
2023-05-10T03:12:39.363Z,1008.87
2023-05-10T03:12:55.493Z,1008.92
2023-05-10T03:13:11.649Z,1008.86
2023-05-10T03:13:27.934Z,1008.85
2023-05-10T03:13:43.893Z,1008.86
2023-05-10T03:14:00.058Z,1008.92
2023-05-10T03:14:16.188Z,1008.85
2023-05-10T03:14:32.338Z,1008.91
2023-05-10T03:14:48.472Z,1008.9
2023-05-10T03:15:04.640Z,1008.83
2023-05-10T03:15:20.706Z,1008.86
2023-05-10T03:15:36.938Z,1008.84
2023-05-10T03:15:53.112Z,1008.87
2023-05-10T03:16:09.282Z,1008.85
2023-05-10T03:16:25.368Z,1008.88
2023-05-10T03:16:43.338Z,1008.83